Time;durP1;ratioP1;P1;durP2;ratioP2;P2;SDS_P1;SDS_P2;PMS_P1;PMS_P2;Temp;Humidity;BMP_temperature;BMP_pressure;BME280_temperature;BME280_humidity;BME280_pressure;Samples;Min_cycle;Max_cycle;Signal;HPM_P1;HPM_P2
2021/09/26 00:01:12;;;;;;;12.80;9.20;;;;;;;15.92;100.00;96889.94;5031114;28;20032;-64
2021/09/26 00:03:57;;;;;;;13.20;8.95;;;;;;;15.92;100.00;96887.16;5046912;28;20146;-65
2021/09/26 00:06:43;;;;;;;15.00;9.40;;;;;;;15.79;100.00;96882.09;5051941;28;20047;-65
2021/09/26 00:09:29;;;;;;;15.40;9.40;;;;;;;15.57;100.00;96878.50;5051078;28;20065;-65
2021/09/26 00:12:15;;;;;;;15.70;9.90;;;;;;;15.31;100.00;96874.19;5031267;28;20060;-63
2021/09/26 00:15:01;;;;;;;14.60;11.02;;;;;;;15.12;100.00;96871.78;5038117;28;20083;-64
2021/09/26 00:17:49;;;;;;;15.35;11.07;;;;;;;15.03;100.00;96870.19;5043935;28;20068;-64
2021/09/26 00:20:35;;;;;;;18.67;11.35;;;;;;;14.98;100.00;96859.56;5019460;28;20048;-63
2021/09/26 00:23:21;;;;;;;16.58;11.45;;;;;;;14.90;100.00;96863.50;5015639;28;20053;-64
2021/09/26 00:26:07;;;;;;;19.98;13.02;;;;;;;14.82;100.00;96868.22;5028368;28;20102;-63
2021/09/26 00:28:53;;;;;;;17.73;12.18;;;;;;;14.83;100.00;96857.97;5045451;28;20712;-64
2021/09/26 00:31:38;;;;;;;18.67;11.88;;;;;;;14.86;100.00;96863.47;5051688;28;20119;-64
2021/09/26 00:34:24;;;;;;;17.70;10.98;;;;;;;14.94;100.00;96857.97;5052447;28;20174;-65
2021/09/26 00:37:10;;;;;;;16.80;10.27;;;;;;;15.04;100.00;96852.47;5037486;28;20067;-64
2021/09/26 00:39:56;;;;;;;17.10;10.73;;;;;;;15.16;100.00;96859.59;5048341;28;20047;-62
2021/09/26 00:42:41;;;;;;;13.77;9.48;;;;;;;15.28;100.00;96861.94;5051853;28;20048;-64
2021/09/26 00:45:27;;;;;;;15.25;9.75;;;;;;;15.36;100.00;96860.00;5024394;28;20069;-63
2021/09/26 00:48:13;;;;;;;14.10;9.68;;;;;;;15.46;100.00;96867.47;5033836;28;20044;-63
2021/09/26 00:50:58;;;;;;;18.55;10.05;;;;;;;15.45;100.00;96873.41;5037451;28;20037;-62
2021/09/26 00:53:45;;;;;;;13.57;9.55;;;;;;;15.45;100.00;96865.91;5036455;28;20566;-62
2021/09/26 00:56:31;;;;;;;15.98;9.52;;;;;;;15.49;100.00;96872.22;5035169;28;20040;-65
2021/09/26 00:59:19;;;;;;;17.90;10.30;;;;;;;15.40;100.00;96860.00;5024871;28;20049;-65
2021/09/26 01:02:05;;;;;;;12.95;9.45;;;;;;;15.55;100.00;96863.53;5039754;28;20094;-64
2021/09/26 01:04:51;;;;;;;15.80;10.20;;;;;;;15.57;100.00;96864.69;5055135;28;20041;-65
2021/09/26 01:07:52;;;;;;;13.35;9.23;;;;;;;15.36;100.00;96859.19;5055005;28;20044;-65
2021/09/26 01:10:59;;;;;;;14.82;10.38;;;;;;;15.23;100.00;96858.78;5042037;28;20497;-65
2021/09/26 01:13:56;;;;;;;16.13;10.48;;;;;;;14.98;100.00;96858.78;5036198;28;20133;-64
2021/09/26 01:16:57;;;;;;;17.98;11.02;;;;;;;14.75;100.00;96848.06;5050707;28;20040;-65
2021/09/26 01:20:17;;;;;;;12.43;9.45;;;;;;;14.86;100.00;96846.94;5038306;28;20029;-64
2021/09/26 01:23:05;;;;;;;15.73;10.57;;;;;;;14.97;100.00;96852.47;5032951;28;20492;-61
2021/09/26 01:26:10;;;;;;;16.52;9.85;;;;;;;15.08;100.00;96845.00;5032080;28;20048;-64
2021/09/26 01:29:09;;;;;;;17.77;9.93;;;;;;;15.10;100.00;96839.88;5038114;28;20051;-63
2021/09/26 01:32:02;;;;;;;13.05;9.70;;;;;;;15.24;100.00;96849.34;5048522;28;20044;-63
2021/09/26 01:34:53;;;;;;;15.20;9.48;;;;;;;15.29;100.00;96851.72;5052502;28;20055;-65
2021/09/26 01:37:54;;;;;;;14.32;9.48;;;;;;;15.54;100.00;96848.94;5045457;28;20559;-64
2021/09/26 01:40:51;;;;;;;14.27;9.27;;;;;;;15.64;100.00;96859.19;5039620;28;20135;-64
2021/09/26 01:43:42;;;;;;;13.88;9.27;;;;;;;15.75;100.00;96859.19;5049776;28;20668;-65
2021/09/26 01:46:35;;;;;;;14.65;10.20;;;;;;;15.61;100.00;96850.91;5014549;28;20144;-64
2021/09/26 01:49:28;;;;;;;14.57;8.88;;;;;;;15.48;100.00;96854.09;5030894;28;20041;-66
2021/09/26 01:52:24;;;;;;;12.93;9.20;;;;;;;15.58;100.00;96844.22;5032183;28;20072;-64
2021/09/26 01:55:12;;;;;;;15.65;10.25;;;;;;;15.19;100.00;96836.72;5028585;28;20040;-65
2021/09/26 01:57:59;;;;;;;13.10;9.93;;;;;;;14.93;100.00;96834.31;5036521;28;20079;-65
2021/09/26 02:00:45;;;;;;;17.60;10.30;;;;;;;14.74;100.00;96829.97;5034601;28;20033;-65
2021/09/26 02:03:32;;;;;;;19.92;11.10;;;;;;;14.74;100.00;96825.25;5034936;28;20102;-64
2021/09/26 02:06:18;;;;;;;16.63;10.32;;;;;;;14.89;100.00;96820.53;5032320;28;20510;-65
2021/09/26 02:09:06;;;;;;;19.58;11.82;;;;;;;14.97;100.00;96819.38;5034032;28;20095;-64
2021/09/26 02:11:53;;;;;;;20.52;11.50;;;;;;;14.95;100.00;96812.69;5045810;28;20049;-64
2021/09/26 02:14:42;;;;;;;18.65;11.60;;;;;;;14.91;100.00;96807.94;5041845;28;20096;-64
2021/09/26 02:17:28;;;;;;;;;;;;;;;14.94;100.00;96803.59;5046869;28;20048;-65
2021/09/26 02:20:17;;;;;;;16.88;10.65;;;;;;;14.96;100.00;96803.22;5045196;28;19913;-64
2021/09/26 02:23:03;;;;;;;17.38;10.63;;;;;;;14.95;100.00;96809.94;5044625;28;20041;-62
2021/09/26 02:25:51;;;;;;;20.38;11.55;;;;;;;14.91;100.00;96813.47;5046830;28;20542;-64
2021/09/26 02:28:37;;;;;;;15.90;10.93;;;;;;;14.95;100.00;96807.16;5038616;28;20072;-63
2021/09/26 02:31:22;;;;;;;14.52;10.13;;;;;;;15.01;100.00;96811.88;5029741;28;20902;-64
2021/09/26 02:34:08;;;;;;;17.83;10.38;;;;;;;15.17;100.00;96811.50;5030642;28;20057;-64
2021/09/26 02:36:54;;;;;;;19.10;11.02;;;;;;;15.19;100.00;96811.88;5035757;28;20045;-66
2021/09/26 02:39:40;;;;;;;16.00;9.88;;;;;;;15.23;100.00;96811.88;5036105;28;20068;-64
2021/09/26 02:42:53;;;;;;;26.48;17.65;;;;;;;15.18;100.00;96795.72;5031287;28;20059;-64
2021/09/26 02:45:49;;;;;;;18.70;11.82;;;;;;;15.14;100.00;96798.50;5034228;28;20045;-65
2021/09/26 02:48:35;;;;;;;14.65;9.70;;;;;;;15.21;100.00;96800.47;5033057;28;20056;-64
2021/09/26 02:51:23;;;;;;;14.98;9.85;;;;;;;15.30;100.00;96798.09;5026013;28;20195;-65
2021/09/26 02:54:09;;;;;;;18.40;9.30;;;;;;;15.43;100.00;96793.75;5015067;28;20037;-65
2021/09/26 02:56:54;;;;;;;13.65;9.10;;;;;;;15.50;100.00;96795.69;5035057;28;20040;-65
2021/09/26 02:59:40;;;;;;;11.73;8.35;;;;;;;15.59;100.00;96787.00;5034901;28;20140;-64
2021/09/26 03:02:31;;;;;;;18.70;9.00;;;;;;;15.75;100.00;96784.63;5029380;28;20040;-63
2021/09/26 03:05:17;;;;;;;18.95;9.07;;;;;;;15.79;100.00;96776.34;5029161;28;20052;-64
2021/09/26 03:08:04;;;;;;;12.55;8.52;;;;;;;15.80;100.00;96775.16;5031686;28;20049;-62
2021/09/26 03:10:56;;;;;;;13.15;8.02;;;;;;;15.89;100.00;96767.25;5033235;28;20041;-64
2021/09/26 03:13:42;;;;;;;14.45;8.57;;;;;;;15.94;100.00;96766.84;5036066;28;20490;-62
2021/09/26 03:16:27;;;;;;;16.05;8.73;;;;;;;15.75;100.00;96759.78;5031119;28;20049;-61
2021/09/26 03:19:13;;;;;;;14.13;9.60;;;;;;;15.21;100.00;96765.38;5025544;28;20037;-62
2021/09/26 03:21:59;;;;;;;12.43;8.98;;;;;;;15.15;100.00;96758.69;5035998;28;20135;-62
2021/09/26 03:24:45;;;;;;;13.57;9.13;;;;;;;15.23;100.00;96751.19;5038643;28;20492;-62
2021/09/26 03:27:30;;;;;;;17.13;10.10;;;;;;;15.20;100.00;96752.00;5034544;28;20041;-65
2021/09/26 03:30:17;;;;;;;16.08;9.52;;;;;;;15.11;100.00;96752.41;5035200;28;20755;-61
2021/09/26 03:33:02;;;;;;;16.48;10.70;;;;;;;15.18;100.00;96760.66;5025717;28;20132;-61
2021/09/26 03:35:49;;;;;;;21.42;9.95;;;;;;;15.32;100.00;96751.56;5018105;28;20063;-62
2021/09/26 03:38:35;;;;;;;16.60;9.98;;;;;;;15.42;100.00;96745.25;5018261;28;20743;-62
2021/09/26 03:41:21;;;;;;;19.67;10.30;;;;;;;15.41;100.00;96742.88;5010310;28;20067;-60
2021/09/26 03:44:06;;;;;;;14.10;9.05;;;;;;;15.32;100.00;96745.28;5013785;28;20029;-63
2021/09/26 03:46:52;;;;;;;13.75;8.45;;;;;;;15.34;100.00;96746.47;5024672;28;20139;-63
2021/09/26 03:49:38;;;;;;;16.90;9.15;;;;;;;15.27;100.00;96754.75;5048050;28;20145;-62
2021/09/26 03:52:24;;;;;;;15.30;9.15;;;;;;;15.14;100.00;96757.09;5052162;28;20056;-65
2021/09/26 03:55:12;;;;;;;12.88;8.15;;;;;;;15.09;100.00;96750.03;5016932;28;20076;-65
2021/09/26 03:57:58;;;;;;;13.82;8.75;;;;;;;14.99;100.00;96752.78;5020353;28;20046;-65
2021/09/26 04:00:43;;;;;;;15.00;8.20;;;;;;;15.05;100.00;96748.44;5019028;28;20041;-65
2021/09/26 04:03:29;;;;;;;15.02;8.30;;;;;;;15.09;100.00;96747.28;5029764;28;20104;-64
2021/09/26 04:06:15;;;;;;;11.80;7.93;;;;;;;15.08;100.00;96748.44;5021544;28;20037;-64
2021/09/26 04:09:02;;;;;;;13.43;8.25;;;;;;;15.15;100.00;96750.41;5038955;28;20175;-63
2021/09/26 04:11:47;;;;;;;12.02;8.27;;;;;;;15.12;100.00;96751.19;5037975;28;20140;-62
2021/09/26 04:14:33;;;;;;;13.23;8.60;;;;;;;15.01;100.00;96753.19;5038659;28;20044;-64
2021/09/26 04:17:19;;;;;;;16.83;8.98;;;;;;;14.93;100.00;96757.13;5032175;28;20052;-65
2021/09/26 04:20:07;;;;;;;11.23;7.45;;;;;;;14.82;100.00;96760.66;5036700;28;20098;-65
2021/09/26 04:22:52;;;;;;;10.90;7.80;;;;;;;14.70;100.00;96755.53;5033413;28;20079;-65
2021/09/26 04:25:38;;;;;;;10.27;7.32;;;;;;;14.59;100.00;96746.47;5032450;28;20076;-64
2021/09/26 04:28:24;;;;;;;11.55;7.30;;;;;;;14.58;100.00;96742.13;5017560;28;20697;-64
2021/09/26 04:31:10;;;;;;;15.02;7.72;;;;;;;14.63;100.00;96745.28;5027034;28;20045;-63
2021/09/26 04:33:55;;;;;;;11.32;7.63;;;;;;;14.69;100.00;96735.47;5042553;28;20114;-60
2021/09/26 04:36:42;;;;;;;10.30;7.75;;;;;;;14.63;100.00;96737.00;5028670;28;20429;-61
2021/09/26 04:39:27;;;;;;;14.07;7.63;;;;;;;14.45;100.00;96736.19;5034321;28;20049;-60
2021/09/26 04:42:13;;;;;;;14.23;7.82;;;;;;;14.28;100.00;96730.25;5040881;28;20048;-63
2021/09/26 04:44:59;;;;;;;13.23;8.75;;;;;;;14.10;100.00;96730.19;5034684;28;20319;-61
2021/09/26 04:47:45;;;;;;;18.10;9.55;;;;;;;13.77;100.00;96714.72;5047889;28;20068;-61
2021/09/26 04:50:32;;;;;;;11.18;8.27;;;;;;;13.75;100.00;96720.63;5044627;28;20550;-62
2021/09/26 04:53:17;;;;;;;13.70;9.35;;;;;;;13.85;100.00;96721.84;5038351;28;20076;-62
2021/09/26 04:56:03;;;;;;;14.60;9.27;;;;;;;13.91;100.00;96716.75;5039760;28;20072;-63
2021/09/26 04:58:49;;;;;;;14.20;9.43;;;;;;;13.99;100.00;96712.06;5036157;28;20134;-58
2021/09/26 05:01:35;;;;;;;16.65;9.18;;;;;;;14.02;100.00;96714.81;5039291;28;20043;-64
2021/09/26 05:04:21;;;;;;;15.85;9.00;;;;;;;14.03;100.00;96713.66;5031617;28;20407;-62
2021/09/26 05:07:07;;;;;;;15.35;9.18;;;;;;;14.06;100.00;96712.88;5026480;28;20048;-64
2021/09/26 05:09:53;;;;;;;12.82;8.15;;;;;;;14.05;100.00;96714.06;5042224;28;20203;-62
2021/09/26 05:12:38;;;;;;;12.45;8.20;;;;;;;14.04;100.00;96719.94;5034967;28;20080;-63
2021/09/26 05:15:25;;;;;;;12.02;7.57;;;;;;;13.98;100.00;96714.03;5022018;28;20048;-62
2021/09/26 05:18:12;;;;;;;12.57;8.30;;;;;;;13.85;100.00;96713.59;5036875;28;20040;-63
2021/09/26 05:20:58;;;;;;;17.00;9.10;;;;;;;13.67;100.00;96705.28;5049490;28;20125;-61
2021/09/26 05:23:43;;;;;;;14.55;8.77;;;;;;;13.61;100.00;96704.03;5039155;28;20152;-62
2021/09/26 05:26:29;;;;;;;13.45;8.63;;;;;;;13.67;100.00;96710.78;5036090;28;20155;-61
2021/09/26 05:29:15;;;;;;;11.65;7.32;;;;;;;13.79;100.00;96709.63;5027586;28;20055;-65
2021/09/26 05:32:00;;;;;;;12.00;8.52;;;;;;;13.43;100.00;96716.94;5037293;28;20166;-63
2021/09/26 05:34:46;;;;;;;11.88;7.93;;;;;;;13.41;100.00;96724.78;5041279;28;20047;-62
2021/09/26 05:37:32;;;;;;;10.80;7.57;;;;;;;13.39;100.00;96725.16;5057285;28;20037;-64
2021/09/26 05:40:17;;;;;;;10.60;6.72;;;;;;;13.70;100.00;96722.97;5032165;28;20080;-64
2021/09/26 05:43:03;;;;;;;9.95;6.25;;;;;;;13.95;100.00;96732.13;5047477;28;20051;-65
2021/09/26 05:45:49;;;;;;;9.55;6.32;;;;;;;14.21;100.00;96721.97;5050509;28;20052;-62
2021/09/26 05:48:35;;;;;;;9.57;6.63;;;;;;;14.52;100.00;96703.91;5046429;28;20041;-62
2021/09/26 05:51:20;;;;;;;18.20;5.53;;;;;;;14.30;100.00;96699.56;5037244;28;20037;-62
2021/09/26 05:54:06;;;;;;;8.40;5.10;;;;;;;15.00;100.00;96699.19;5041070;28;20037;-64
2021/09/26 05:56:52;;;;;;;8.63;5.40;;;;;;;15.63;100.00;96699.47;5029021;28;20060;-64
2021/09/26 05:59:38;;;;;;;9.23;5.80;;;;;;;16.11;100.00;96701.63;5040951;28;20186;-65
2021/09/26 06:02:26;;;;;;;8.70;6.22;;;;;;;16.46;99.04;96701.81;5043883;28;20568;-65
2021/09/26 06:05:12;;;;;;;8.85;6.35;;;;;;;16.58;97.42;96687.50;5046184;28;20409;-65
2021/09/26 06:07:58;;;;;;;9.23;6.25;;;;;;;16.11;98.25;96689.81;5055985;28;20059;-65
2021/09/26 06:10:43;;;;;;;9.82;5.45;;;;;;;16.20;99.71;96695.66;5044348;28;20040;-64
2021/09/26 06:13:29;;;;;;;8.68;6.07;;;;;;;16.05;99.33;96692.19;5041254;28;20045;-64
2021/09/26 06:16:15;;;;;;;8.23;5.72;;;;;;;16.30;100.00;96694.03;5037034;28;20069;-64
2021/09/26 06:19:01;;;;;;;9.27;5.85;;;;;;;16.56;98.93;96693.44;5038567;28;20180;-63
2021/09/26 06:21:47;;;;;;;11.13;6.00;;;;;;;16.61;97.73;96690.25;5032792;28;20045;-67
2021/09/26 06:24:32;;;;;;;8.52;5.45;;;;;;;16.74;97.36;96692.53;5033144;28;20708;-63
2021/09/26 06:27:19;;;;;;;12.20;5.88;;;;;;;16.99;96.10;96678.50;5035487;28;20478;-61
2021/09/26 06:30:06;;;;;;;10.93;5.85;;;;;;;17.25;94.32;96685.38;5035508;28;20191;-64
2021/09/26 06:32:52;;;;;;;15.02;6.00;;;;;;;17.82;91.91;96680.38;5043495;28;20097;-61
2021/09/26 06:35:38;;;;;;;11.93;5.63;;;;;;;18.41;87.50;96690.31;5035354;28;20041;-62
2021/09/26 06:38:23;;;;;;;7.82;4.80;;;;;;;19.07;83.24;96694.44;5028095;28;20487;-64
2021/09/26 06:41:11;;;;;;;8.05;5.40;;;;;;;18.91;84.40;96684.00;5036415;28;20106;-63
2021/09/26 06:43:57;;;;;;;9.38;5.22;;;;;;;19.47;81.36;96686.94;5036054;28;20048;-62
2021/09/26 06:46:43;;;;;;;7.60;5.05;;;;;;;19.61;80.74;96699.78;5040287;28;20048;-64
2021/09/26 06:49:29;;;;;;;10.90;5.53;;;;;;;19.49;80.95;96717.88;5044688;28;20131;-64
2021/09/26 06:52:14;;;;;;;7.57;5.25;;;;;;;18.75;86.22;96715.16;5028391;28;20098;-63
2021/09/26 06:55:00;;;;;;;9.52;5.18;;;;;;;18.94;85.37;96715.66;5044789;28;20490;-64
2021/09/26 06:57:46;;;;;;;6.80;4.63;;;;;;;18.43;88.48;96708.09;5029280;28;20373;-63
2021/09/26 07:00:32;;;;;;;8.80;5.35;;;;;;;19.02;86.19;96723.47;5030218;28;20047;-62
2021/09/26 07:03:18;;;;;;;9.30;5.53;;;;;;;19.61;83.00;96721.25;5018670;28;20048;-61
2021/09/26 07:06:03;;;;;;;6.88;4.82;;;;;;;20.33;78.87;96733.69;5031405;28;20037;-64
2021/09/26 07:08:49;;;;;;;13.10;5.25;;;;;;;21.12;74.63;96731.88;5019742;28;20052;-63
2021/09/26 07:11:35;;;;;;;9.07;4.60;;;;;;;21.91;69.85;96727.06;5037601;28;20044;-64
2021/09/26 07:14:21;;;;;;;9.32;5.50;;;;;;;22.48;68.14;96733.00;5031087;28;20043;-61
2021/09/26 07:17:06;;;;;;;10.20;5.28;;;;;;;23.02;64.35;96740.47;5030859;28;20037;-64
2021/09/26 07:19:52;;;;;;;10.00;5.10;;;;;;;23.59;62.68;96748.22;5054477;28;20045;-63
2021/09/26 07:22:40;;;;;;;5.47;4.05;;;;;;;23.61;61.97;96751.34;5054502;28;20143;-63
2021/09/26 07:25:27;;;;;;;9.55;5.28;;;;;;;23.55;62.55;96753.94;5046797;28;20746;-64
2021/09/26 07:28:13;;;;;;;9.43;5.07;;;;;;;22.71;66.95;96768.97;5038372;28;20088;-64
2021/09/26 07:30:59;;;;;;;8.70;5.38;;;;;;;22.33;69.31;96778.06;5035609;28;20460;-63
2021/09/26 07:33:45;;;;;;;9.82;5.65;;;;;;;21.20;73.62;96786.22;5050563;28;20055;-63
2021/09/26 07:36:31;;;;;;;10.43;5.38;;;;;;;20.74;77.12;96808.34;5031267;28;20044;-61
2021/09/26 07:39:20;;;;;;;11.32;6.13;;;;;;;20.02;81.35;96820.13;5039927;28;20091;-63
2021/09/26 07:42:06;;;;;;;10.80;5.73;;;;;;;19.59;84.13;96827.22;5033684;28;20033;-62
2021/09/26 07:44:52;;;;;;;14.32;6.75;;;;;;;19.38;85.77;96847.81;5044587;28;20044;-62
2021/09/26 07:47:38;;;;;;;14.48;7.18;;;;;;;18.67;90.02;96867.06;5036316;28;20037;-61
2021/09/26 07:50:26;;;;;;;15.40;7.07;;;;;;;18.83;90.18;96883.09;5030347;28;20040;-63
2021/09/26 07:53:12;;;;;;;12.95;6.90;;;;;;;18.82;90.57;96889.09;5035818;28;20045;-64
2021/09/26 07:55:57;;;;;;;14.90;7.25;;;;;;;18.20;94.98;96890.97;5040696;28;20044;-63
2021/09/26 07:58:43;;;;;;;12.20;8.02;;;;;;;18.22;96.61;96894.94;5032879;28;20526;-65
2021/09/26 08:01:29;;;;;;;13.80;8.20;;;;;;;18.05;97.76;96912.53;5040047;28;20573;-64
2021/09/26 08:04:16;;;;;;;14.43;8.80;;;;;;;17.83;100.00;96906.38;5031733;28;20040;-63
2021/09/26 08:07:01;;;;;;;15.77;9.60;;;;;;;17.75;100.00;96909.19;5027196;28;20622;-64
2021/09/26 08:09:47;;;;;;;14.93;8.57;;;;;;;18.20;99.33;96919.47;5036839;28;20553;-63
2021/09/26 08:12:34;;;;;;;15.20;8.93;;;;;;;18.51;96.05;96934.22;5040446;28;20246;-61
2021/09/26 08:15:20;;;;;;;15.10;8.77;;;;;;;18.72;94.77;96935.16;5034542;28;20059;-63
2021/09/26 08:18:06;;;;;;;13.02;8.60;;;;;;;18.72;94.31;96935.94;5040258;28;20036;-65
2021/09/26 08:20:52;;;;;;;15.50;9.77;;;;;;;18.67;94.28;96953.06;5039311;28;20621;-62
2021/09/26 08:23:37;;;;;;;13.77;8.57;;;;;;;18.62;94.38;96950.72;5056892;28;20049;-62
2021/09/26 08:26:23;;;;;;;13.48;8.50;;;;;;;18.51;95.00;96950.03;5036258;28;20051;-63
2021/09/26 08:29:09;;;;;;;11.80;8.25;;;;;;;18.91;94.31;96951.19;5038026;28;20072;-64
2021/09/26 08:31:55;;;;;;;13.48;8.18;;;;;;;19.18;91.63;96964.34;5044909;28;20493;-64
2021/09/26 08:34:41;;;;;;;16.58;8.38;;;;;;;19.59;89.34;96962.56;5047814;28;20052;-62
2021/09/26 08:37:26;;;;;;;12.48;8.20;;;;;;;19.49;88.98;96978.97;5008686;28;20756;-64
2021/09/26 08:40:13;;;;;;;12.63;8.13;;;;;;;20.57;85.08;96977.22;5032982;28;20124;-64
2021/09/26 08:42:58;;;;;;;15.35;7.53;;;;;;;;;;5013246;28;20045;-63
2021/09/26 08:45:44;;;;;;;13.70;8.15;;;;;;;21.37;78.92;96977.22;5033436;28;20037;-62
2021/09/26 08:48:30;;;;;;;15.65;7.72;;;;;;;22.49;73.35;96988.50;5037120;28;20436;-61
2021/09/26 08:51:16;;;;;;;11.45;6.72;;;;;;;22.68;74.11;96995.19;5026193;28;20041;-62
2021/09/26 08:54:02;;;;;;;11.85;6.38;;;;;;;22.79;70.47;97001.25;5031414;28;20083;-61
2021/09/26 08:56:49;;;;;;;8.00;4.80;;;;;;;23.66;67.67;97008.75;5031291;28;20048;-63
2021/09/26 08:59:35;;;;;;;6.82;4.30;;;;;;;23.67;63.97;96998.34;5039861;28;20103;-64
2021/09/26 09:02:20;;;;;;;15.77;11.05;;;;;;;23.39;62.79;97000.81;5018063;28;20042;-64
2021/09/26 09:05:28;;;;;;;6.28;3.55;;;;;;;23.51;60.76;97004.81;5010262;28;20183;-64
2021/09/26 09:08:16;;;;;;;5.72;3.38;;;;;;;23.66;60.87;97014.34;5021354;28;20041;-63
2021/09/26 09:11:02;;;;;;;6.55;3.33;;;;;;;22.82;63.90;97016.38;5036655;28;20033;-62
2021/09/26 09:13:59;;;;;;;6.55;3.30;;;;;;;24.06;59.67;97018.75;5018817;28;20196;-65
2021/09/26 09:16:55;;;;;;;5.80;3.30;;;;;;;24.73;57.10;97019.72;5039309;28;20048;-65
2021/09/26 09:19:41;;;;;;;8.80;3.45;;;;;;;24.59;56.12;97013.38;5028453;28;20049;-64
2021/09/26 09:22:29;;;;;;;4.80;2.92;;;;;;;24.23;57.98;97010.97;5034434;28;21008;-63
2021/09/26 09:25:29;;;;;;;6.05;2.90;;;;;;;23.58;59.96;97009.41;5034820;28;20706;-65
2021/09/26 09:28:16;;;;;;;6.40;2.90;;;;;;;23.26;60.94;97017.56;5037386;28;20048;-66
2021/09/26 09:31:04;;;;;;;5.80;3.22;;;;;;;22.91;62.29;97014.50;5051477;28;20040;-64
2021/09/26 09:33:49;;;;;;;8.77;4.03;;;;;;;22.68;63.52;97007.13;5036595;28;20052;-67
2021/09/26 09:36:35;;;;;;;6.70;3.55;;;;;;;22.55;64.02;97000.72;5027344;28;20551;-65
2021/09/26 09:39:21;;;;;;;7.57;3.53;;;;;;;22.31;65.21;97000.94;5033620;28;20075;-66
2021/09/26 09:42:18;;;;;;;8.88;3.70;;;;;;;22.06;66.44;97007.13;5033350;28;20040;-66
2021/09/26 09:45:13;;;;;;;6.13;3.97;;;;;;;21.84;66.12;97000.47;5029471;28;20052;-61
2021/09/26 09:48:08;;;;;;;8.23;4.18;;;;;;;21.93;67.21;97000.66;5032235;28;20061;-64
2021/09/26 09:50:57;;;;;;;7.20;4.03;;;;;;;22.00;66.94;96991.34;5042609;28;20064;-66
2021/09/26 09:53:45;;;;;;;9.50;4.45;;;;;;;21.85;67.84;96988.88;5040948;28;20052;-63
2021/09/26 09:56:40;;;;;;;7.88;4.05;;;;;;;21.96;67.51;96981.03;5044688;28;20768;-65
2021/09/26 09:59:32;;;;;;;8.07;4.60;;;;;;;22.02;67.46;96984.13;5029756;28;20041;-64
2021/09/26 10:02:18;;;;;;;5.85;4.20;;;;;;;22.09;67.07;96977.56;5028860;28;20048;-65
2021/09/26 10:05:04;;;;;;;8.65;4.10;;;;;;;22.17;66.71;96978.19;5038103;28;20041;-62
2021/09/26 10:07:50;;;;;;;6.88;3.40;;;;;;;22.26;66.19;96987.50;5046966;28;20095;-64
2021/09/26 10:10:36;;;;;;;6.95;3.72;;;;;;;22.04;67.55;96995.63;5039813;28;20801;-66
2021/09/26 10:13:24;;;;;;;6.68;4.07;;;;;;;22.35;67.54;96997.28;5011520;28;20049;-64
2021/09/26 10:16:10;;;;;;;7.32;3.70;;;;;;;22.35;67.24;96989.69;5035953;28;20427;-64
2021/09/26 10:18:56;;;;;;;6.85;3.35;;;;;;;22.38;65.87;96991.59;5036521;28;20087;-64
2021/09/26 10:21:43;;;;;;;4.70;3.05;;;;;;;22.18;67.05;96985.31;5031416;28;20072;-63
2021/09/26 10:24:33;;;;;;;4.72;3.05;;;;;;;22.19;67.73;96992.47;5031929;28;20049;-64
2021/09/26 10:27:22;;;;;;;8.60;3.50;;;;;;;22.17;67.56;96978.97;5010829;28;20615;-65
2021/09/26 10:30:10;;;;;;;6.55;3.10;;;;;;;22.63;65.97;96968.59;5031116;28;20045;-63
2021/09/26 10:32:59;;;;;;;4.28;2.63;;;;;;;23.06;63.71;96969.44;5024851;28;20147;-65
2021/09/26 10:35:46;;;;;;;3.77;2.80;;;;;;;23.23;62.22;96964.56;5025072;28;20045;-62
2021/09/26 10:38:32;;;;;;;4.30;2.42;;;;;;;23.62;61.94;96957.78;5019396;28;20125;-64
2021/09/26 10:41:18;;;;;;;3.58;2.40;;;;;;;23.80;59.00;96956.44;5023643;28;20036;-63
2021/09/26 10:44:27;;;;;;;4.25;2.30;;;;;;;23.96;57.17;96952.72;5016966;28;20051;-61
2021/09/26 10:47:18;;;;;;;3.17;2.40;;;;;;;24.14;57.09;96957.72;5020995;28;20037;-64
2021/09/26 10:50:12;;;;;;;4.68;2.53;;;;;;;24.07;56.79;96957.97;5022093;28;20045;-60
2021/09/26 10:53:13;;;;;;;5.80;2.80;;;;;;;23.88;56.53;96962.56;5023554;28;20528;-68
2021/09/26 10:56:23;;;;;;;7.45;3.13;;;;;;;23.04;60.50;96961.50;5041181;28;20044;-65
2021/09/26 10:59:09;;;;;;;4.85;2.60;;;;;;;24.69;56.62;96963.06;5027604;28;20037;-63
2021/09/26 11:01:55;;;;;;;17.10;10.32;;;;;;;26.09;51.25;96957.72;5017965;28;20045;-64
2021/09/26 11:04:40;;;;;;;6.35;3.53;;;;;;;25.67;53.62;96950.56;5037269;28;20044;-64
2021/09/26 11:07:31;;;;;;;5.88;3.30;;;;;;;25.34;54.55;96939.06;5026261;28;20707;-66
2021/09/26 11:10:17;;;;;;;6.75;3.65;;;;;;;24.78;56.92;96943.53;5029490;28;20052;-64
2021/09/26 11:13:08;;;;;;;12.00;3.90;;;;;;;24.57;58.27;96933.88;5043730;28;20131;-61
2021/09/26 11:16:20;;;;;;;5.65;3.50;;;;;;;24.43;59.75;96913.53;5037940;28;20052;-66
2021/09/26 11:19:13;;;;;;;6.32;3.55;;;;;;;24.12;59.98;96907.81;5035009;28;20040;-66
2021/09/26 11:22:07;;;;;;;6.45;3.90;;;;;;;24.74;57.43;96901.66;5044331;28;20564;-62
2021/09/26 11:24:57;;;;;;;5.53;3.65;;;;;;;24.57;57.13;96903.84;5054324;28;20054;-62
2021/09/26 11:27:43;;;;;;;6.93;3.80;;;;;;;24.13;58.51;96894.59;5054344;28;20048;-62
2021/09/26 11:30:37;;;;;;;8.68;3.92;;;;;;;23.87;59.60;96905.09;5022887;28;20436;-64
2021/09/26 11:33:24;;;;;;;8.15;4.20;;;;;;;23.71;60.05;96892.75;5028050;28;20803;-62
2021/09/26 11:36:18;;;;;;;7.53;3.83;;;;;;;23.21;61.02;96889.56;5033180;28;20108;-61
2021/09/26 11:39:31;;;;;;;7.40;4.55;;;;;;;22.18;66.19;96896.81;5051677;28;20041;-60
2021/09/26 11:42:28;;;;;;;7.63;5.10;;;;;;;21.89;66.70;96894.00;5050035;28;20052;-61
2021/09/26 11:45:15;;;;;;;8.38;4.30;;;;;;;22.06;66.54;96897.56;5051668;28;20792;-61
2021/09/26 11:48:04;;;;;;;10.02;4.15;;;;;;;22.20;65.94;96883.25;5046977;28;20045;-63
2021/09/26 11:50:49;;;;;;;6.50;4.22;;;;;;;22.48;64.39;96886.50;5046950;28;20068;-62
2021/09/26 11:53:36;;;;;;;6.38;4.18;;;;;;;22.38;64.71;96896.72;5048773;28;20456;-62
2021/09/26 11:56:28;;;;;;;8.02;4.20;;;;;;;22.07;64.78;96907.47;5042416;28;20470;-60
2021/09/26 11:59:16;;;;;;;9.20;4.68;;;;;;;21.89;65.69;96905.16;5054512;28;20127;-61
2021/09/26 12:02:12;;;;;;;6.50;4.50;;;;;;;22.10;66.08;96901.81;5044539;28;20048;-62
2021/09/26 12:04:58;;;;;;;6.35;4.30;;;;;;;21.89;65.27;96903.13;5048569;28;20080;-62
2021/09/26 12:07:54;;;;;;;6.95;4.30;;;;;;;22.13;65.77;96902.97;5055142;28;20492;-62
2021/09/26 12:10:41;;;;;;;11.18;6.47;;;;;;;22.19;63.66;96892.81;5041861;28;20478;-62
2021/09/26 12:13:26;;;;;;;15.75;9.07;;;;;;;22.25;63.70;96881.91;5032458;28;20045;-62
2021/09/26 12:16:12;;;;;;;7.35;4.55;;;;;;;22.35;63.16;96880.09;5039298;28;20040;-62
2021/09/26 12:19:02;;;;;;;6.30;4.15;;;;;;;22.42;63.61;96877.88;5056576;28;20048;-62
2021/09/26 12:21:58;;;;;;;5.70;3.50;;;;;;;22.51;61.65;96874.44;5056860;28;20085;-63
2021/09/26 12:24:55;;;;;;;5.18;3.17;;;;;;;22.71;59.25;96871.47;5045275;28;20215;-62
2021/09/26 12:27:54;;;;;;;4.22;2.72;;;;;;;22.87;58.33;96862.25;5058244;28;20493;-63
2021/09/26 12:30:40;;;;;;;4.00;3.08;;;;;;;23.16;59.15;96856.59;5056857;28;20036;-62
2021/09/26 12:33:44;;;;;;;6.82;3.67;;;;;;;23.02;61.57;96857.78;5037819;28;20061;-64
2021/09/26 12:36:37;;;;;;;6.95;4.25;;;;;;;22.94;63.04;96864.03;5032513;28;20148;-63
2021/09/26 12:39:33;;;;;;;6.40;3.67;;;;;;;23.00;61.30;96859.47;5031455;28;20204;-62
2021/09/26 12:42:23;;;;;;;6.03;3.78;;;;;;;23.59;60.27;96851.66;5031508;28;20081;-63
2021/09/26 12:45:16;;;;;;;8.40;4.35;;;;;;;23.04;62.28;96849.75;5033812;28;20041;-62
2021/09/26 12:48:03;;;;;;;5.35;3.63;;;;;;;23.91;58.81;96850.56;5037184;28;20040;-61
2021/09/26 12:50:55;;;;;;;5.18;3.05;;;;;;;24.38;55.16;96858.13;5038076;28;20044;-64
2021/09/26 12:53:45;;;;;;;6.55;3.15;;;;;;;24.35;55.25;96856.22;5032413;28;20076;-61
2021/09/26 12:56:36;;;;;;;6.07;3.28;;;;;;;24.59;55.14;96855.81;5032647;28;20246;-64
2021/09/26 12:59:35;;;;;;;7.18;3.38;;;;;;;24.56;54.82;96846.31;5039106;28;20159;-62
2021/09/26 13:02:29;;;;;;;5.65;3.40;;;;;;;24.23;55.50;96835.44;5049747;28;21002;-62